createdAt,value
2016-08-30T00:00:51.082Z,16.25
2016-08-30T00:01:53.019Z,16.25
2016-08-30T00:02:53.797Z,16.29
2016-08-30T00:03:50.889Z,16.27
2016-08-30T00:04:50.894Z,16.34
2016-08-30T00:05:50.904Z,16.27
2016-08-30T00:06:50.956Z,16.34
2016-08-30T00:07:50.874Z,16.27
2016-08-30T00:08:50.880Z,16.26
2016-08-30T00:09:50.870Z,16.29
2016-08-30T00:10:50.899Z,16.3
2016-08-30T00:11:50.866Z,16.11
2016-08-30T00:12:50.866Z,16.34
2016-08-30T00:13:50.855Z,16.14
2016-08-30T00:14:50.875Z,16.21
2016-08-30T00:15:52.692Z,16.18
2016-08-30T00:16:50.850Z,16.18
2016-08-30T00:17:51.145Z,16.21
2016-08-30T00:18:50.847Z,16.11
2016-08-30T00:19:50.837Z,16.14
2016-08-30T00:20:50.831Z,16.08
2016-08-30T00:21:51.042Z,16.04
2016-08-30T00:22:50.833Z,16.1
2016-08-30T00:23:50.828Z,16.08
2016-08-30T00:24:50.830Z,16.08
2016-08-30T00:25:51.138Z,16.07
2016-08-30T00:26:50.842Z,15.92
2016-08-30T00:27:50.849Z,16.02
2016-08-30T00:28:51.385Z,16.06
2016-08-30T00:29:50.802Z,16.08
2016-08-30T00:30:50.795Z,16.06
2016-08-30T00:31:50.815Z,16.06
2016-08-30T00:32:50.790Z,16.06
2016-08-30T00:33:50.847Z,16.1
2016-08-30T00:34:50.802Z,16.08
2016-08-30T00:35:50.805Z,16.06
2016-08-30T00:36:50.811Z,16.07
2016-08-30T00:37:51.581Z,16.14
2016-08-30T00:38:50.829Z,16.04
2016-08-30T00:39:50.836Z,16.11
2016-08-30T00:40:50.847Z,16.04
2016-08-30T00:41:50.768Z,15.95
2016-08-30T00:42:51.370Z,16.07
2016-08-30T00:43:50.764Z,16.04
2016-08-30T00:44:50.776Z,15.99
2016-08-30T00:45:51.008Z,15.95
2016-08-30T00:46:50.782Z,15.96
2016-08-30T00:47:50.790Z,16
2016-08-30T00:48:50.799Z,15.93
2016-08-30T00:49:50.972Z,15.96
2016-08-30T00:50:50.812Z,15.86
2016-08-30T00:51:50.819Z,15.86
2016-08-30T00:52:51.049Z,15.89
2016-08-30T00:53:50.735Z,15.88
2016-08-30T00:54:50.738Z,15.84
2016-08-30T00:55:51.205Z,15.92
2016-08-30T00:56:50.753Z,15.91
2016-08-30T00:57:50.761Z,15.88
2016-08-30T00:58:51.229Z,15.91
2016-08-30T00:59:50.780Z,15.84
2016-08-30T01:00:50.781Z,15.84
2016-08-30T01:01:50.789Z,15.91
2016-08-30T01:02:51.285Z,15.89
2016-08-30T01:03:50.749Z,15.91
2016-08-30T01:04:50.820Z,15.7
2016-08-30T01:05:50.816Z,15.77
2016-08-30T01:06:50.725Z,15.74
2016-08-30T01:07:50.733Z,15.77
2016-08-30T01:08:50.743Z,15.74
2016-08-30T01:09:50.728Z,15.68
2016-08-30T01:10:51.370Z,15.62
2016-08-30T01:11:50.760Z,15.63
2016-08-30T01:12:50.713Z,15.58
2016-08-30T01:13:50.780Z,15.51
2016-08-30T01:14:50.867Z,15.43
2016-08-30T01:15:50.731Z,15.44
2016-08-30T01:16:50.740Z,15.33
2016-08-30T01:17:50.909Z,15.33
2016-08-30T01:18:50.718Z,15.3
2016-08-30T01:19:50.715Z,15.2
2016-08-30T01:20:50.724Z,15.23
2016-08-30T01:21:50.735Z,15.25
2016-08-30T01:22:51.105Z,15.07
2016-08-30T01:23:50.699Z,15.15
2016-08-30T01:24:50.701Z,15.12
2016-08-30T01:25:50.702Z,15.08
2016-08-30T01:26:51.168Z,15.01
2016-08-30T01:27:50.727Z,15.05
2016-08-30T01:28:51.296Z,14.98
2016-08-30T01:29:50.801Z,14.97
2016-08-30T01:30:50.739Z,14.82
2016-08-30T01:31:50.648Z,14.87
2016-08-30T01:32:50.652Z,14.82
2016-08-30T01:33:50.899Z,14.77
2016-08-30T01:34:50.769Z,14.74
2016-08-30T01:35:50.675Z,14.61
2016-08-30T01:36:50.685Z,14.75
2016-08-30T01:37:50.690Z,14.66
2016-08-30T01:38:50.899Z,14.64
2016-08-30T01:39:50.711Z,14.66
2016-08-30T01:40:50.707Z,14.6
2016-08-30T01:41:50.717Z,14.46
2016-08-30T01:42:50.849Z,14.63
2016-08-30T01:43:50.674Z,14.59
2016-08-30T01:44:50.816Z,14.51
2016-08-30T01:45:50.704Z,14.52
2016-08-30T01:46:50.659Z,14.49
2016-08-30T01:47:51.229Z,14.46
2016-08-30T01:48:50.919Z,14.49
2016-08-30T01:49:51.228Z,14.48
2016-08-30T01:50:51.042Z,14.39
2016-08-30T01:51:50.692Z,14.3
2016-08-30T01:52:50.558Z,14.31
2016-08-30T01:53:50.708Z,14.34
2016-08-30T01:54:50.713Z,14.31
2016-08-30T01:55:50.575Z,14.33
2016-08-30T01:56:50.625Z,14.31
2016-08-30T01:57:51.334Z,14.31
2016-08-30T01:58:50.641Z,14.24
2016-08-30T01:59:50.640Z,14.31
2016-08-30T02:00:51.166Z,14.23
2016-08-30T02:02:05.339Z,14.26
2016-08-30T02:02:50.671Z,14.28
2016-08-30T02:03:50.537Z,14.3
2016-08-30T02:04:50.536Z,14.28
2016-08-30T02:05:50.553Z,14.45
2016-08-30T02:06:51.171Z,14.41
2016-08-30T02:07:50.562Z,14.33
2016-08-30T02:08:50.613Z,14.41
2016-08-30T02:09:50.628Z,14.31
2016-08-30T02:10:50.484Z,14.33
2016-08-30T02:11:50.492Z,14.41
2016-08-30T02:12:50.842Z,14.41
2016-08-30T02:13:50.508Z,14.31
2016-08-30T02:14:50.512Z,14.42
2016-08-30T02:15:50.518Z,14.51
2016-08-30T02:16:50.528Z,14.45
2016-08-30T02:17:52.100Z,14.45
2016-08-30T02:18:50.542Z,14.49
2016-08-30T02:19:50.546Z,14.44
2016-08-30T02:20:50.732Z,14.46
2016-08-30T02:21:50.465Z,14.48
2016-08-30T02:22:50.471Z,14.51
2016-08-30T02:23:50.482Z,14.46
2016-08-30T02:24:50.773Z,14.52
2016-08-30T02:25:50.489Z,14.46
2016-08-30T02:26:50.501Z,14.51
2016-08-30T02:27:50.782Z,14.57
2016-08-30T02:28:50.515Z,14.49
2016-08-30T02:29:50.834Z,14.49
2016-08-30T02:30:50.523Z,14.44
2016-08-30T02:31:50.533Z,14.51
2016-08-30T02:32:50.455Z,14.46
2016-08-30T02:33:50.849Z,14.51
2016-08-30T02:34:50.451Z,14.46
2016-08-30T02:35:50.459Z,14.46
2016-08-30T02:36:50.471Z,14.41
2016-08-30T02:37:50.847Z,14.51
2016-08-30T02:38:50.489Z,14.44
2016-08-30T02:39:50.487Z,14.44
2016-08-30T02:40:50.336Z,14.44
2016-08-30T02:41:50.336Z,14.46
2016-08-30T02:42:50.333Z,14.45
2016-08-30T02:43:50.335Z,14.45
2016-08-30T02:44:50.344Z,14.31
2016-08-30T02:45:50.314Z,14.39
2016-08-30T02:46:50.441Z,14.28
2016-08-30T02:47:50.457Z,14.44
2016-08-30T02:48:50.448Z,14.44
2016-08-30T02:49:50.302Z,14.41
2016-08-30T02:50:50.287Z,14.44
2016-08-30T02:51:50.279Z,14.46
2016-08-30T02:52:50.286Z,14.42
2016-08-30T02:53:50.283Z,14.45
2016-08-30T02:54:50.273Z,14.44
2016-08-30T02:55:50.293Z,14.52
2016-08-30T02:56:50.297Z,14.53
2016-08-30T02:57:50.282Z,14.52
2016-08-30T02:58:50.270Z,14.51
2016-08-30T02:59:50.271Z,14.44
2016-08-30T03:00:50.279Z,14.44
2016-08-30T03:01:50.289Z,14.33
2016-08-30T03:02:50.268Z,14.45
2016-08-30T03:03:50.869Z,14.45
2016-08-30T03:04:50.266Z,14.31
2016-08-30T03:05:50.879Z,14.38
2016-08-30T03:06:50.248Z,14.28
2016-08-30T03:07:50.232Z,14.34
2016-08-30T03:08:50.243Z,14.28
2016-08-30T03:09:50.231Z,14.3
2016-08-30T03:10:50.849Z,14.24
2016-08-30T03:11:50.230Z,14.28
2016-08-30T03:12:50.241Z,14.31
2016-08-30T03:13:50.227Z,14.24
2016-08-30T03:14:50.244Z,14.27
2016-08-30T03:15:50.100Z,14.27
2016-08-30T03:16:50.096Z,14.26
2016-08-30T03:17:50.227Z,14.27
2016-08-30T03:18:50.100Z,14.26
2016-08-30T03:19:50.255Z,14.27
2016-08-30T03:20:50.813Z,14.3
2016-08-30T03:21:50.073Z,14.28
2016-08-30T03:22:50.076Z,14.28
2016-08-30T03:23:50.060Z,14.21
2016-08-30T03:24:50.068Z,14.21
2016-08-30T03:25:50.059Z,14.28
2016-08-30T03:26:50.057Z,14.26
2016-08-30T03:27:50.052Z,14.3
2016-08-30T03:28:50.050Z,14.26
2016-08-30T03:29:50.036Z,14.21
2016-08-30T03:30:50.765Z,14.15
2016-08-30T03:31:50.732Z,14.19
2016-08-30T03:32:50.742Z,14.23
2016-08-30T03:33:50.061Z,14.15
2016-08-30T03:34:50.027Z,14.24
2016-08-30T03:35:50.230Z,14.23
2016-08-30T03:36:50.019Z,14.19
2016-08-30T03:37:50.006Z,14.21
2016-08-30T03:38:49.995Z,14.08
2016-08-30T03:39:49.984Z,14.13
2016-08-30T03:40:49.986Z,14.08
2016-08-30T03:41:49.981Z,14.09
2016-08-30T03:42:49.968Z,14.19
2016-08-30T03:43:49.974Z,14.05
2016-08-30T03:44:49.972Z,14.12
2016-08-30T03:45:50.675Z,14.09
2016-08-30T03:46:50.709Z,14.06
2016-08-30T03:47:49.999Z,14.06
2016-08-30T03:48:49.942Z,14.06
2016-08-30T03:49:49.956Z,14.03
2016-08-30T03:50:49.927Z,13.91
2016-08-30T03:51:49.918Z,13.87
2016-08-30T03:52:49.920Z,13.88
2016-08-30T03:53:49.918Z,13.83
2016-08-30T03:54:49.916Z,13.9
2016-08-30T03:55:49.900Z,13.84
2016-08-30T03:56:49.897Z,13.84
2016-08-30T03:57:49.891Z,13.75
2016-08-30T03:58:49.890Z,13.72
2016-08-30T03:59:49.885Z,13.68
2016-08-30T04:00:49.884Z,13.63
2016-08-30T04:01:49.867Z,13.53
2016-08-30T04:02:49.869Z,13.54
2016-08-30T04:03:49.875Z,13.5
2016-08-30T04:04:50.602Z,13.45
2016-08-30T04:05:49.864Z,13.48
2016-08-30T04:06:49.859Z,13.48
2016-08-30T04:07:49.836Z,13.53
2016-08-30T04:08:49.840Z,13.53
2016-08-30T04:09:49.830Z,13.5
2016-08-30T04:10:49.824Z,13.58
2016-08-30T04:11:49.841Z,13.55
2016-08-30T04:12:49.814Z,13.51
2016-08-30T04:13:49.814Z,13.63
2016-08-30T04:14:49.806Z,13.58
2016-08-30T04:15:49.801Z,13.6
2016-08-30T04:16:49.799Z,13.62
2016-08-30T04:17:49.789Z,13.75
2016-08-30T04:18:49.781Z,13.62
2016-08-30T04:19:49.795Z,13.73
2016-08-30T04:20:49.791Z,13.68
2016-08-30T04:21:49.769Z,13.72
2016-08-30T04:22:49.770Z,13.69
2016-08-30T04:23:49.768Z,13.68
2016-08-30T04:24:49.749Z,13.66
2016-08-30T04:25:49.770Z,13.72
2016-08-30T04:26:49.745Z,13.7
2016-08-30T04:27:49.744Z,13.81
2016-08-30T04:28:49.751Z,13.72
2016-08-30T04:29:49.726Z,13.69
2016-08-30T04:30:49.718Z,13.69
2016-08-30T04:31:50.567Z,13.68
2016-08-30T04:32:49.721Z,13.81
2016-08-30T04:33:49.717Z,13.84
2016-08-30T04:34:49.704Z,13.81
2016-08-30T04:35:49.712Z,13.76
2016-08-30T04:36:49.708Z,13.83
2016-08-30T04:37:49.680Z,13.84
2016-08-30T04:38:49.687Z,13.84
2016-08-30T04:39:49.685Z,13.86
2016-08-30T04:40:49.670Z,13.9
2016-08-30T04:41:49.672Z,13.9
2016-08-30T04:42:49.669Z,13.83
2016-08-30T04:43:49.654Z,13.9
2016-08-30T04:44:49.675Z,13.91
2016-08-30T04:45:49.638Z,13.93
2016-08-30T04:46:49.643Z,13.88
2016-08-30T04:47:49.637Z,13.91
2016-08-30T04:48:49.627Z,13.93
2016-08-30T04:49:49.625Z,13.93
2016-08-30T04:50:49.613Z,13.91
2016-08-30T04:51:49.622Z,13.93
2016-08-30T04:52:49.622Z,13.95
2016-08-30T04:53:49.616Z,13.97
2016-08-30T04:54:49.604Z,13.94
2016-08-30T04:55:49.596Z,13.94
2016-08-30T04:56:49.582Z,13.97
2016-08-30T04:57:49.584Z,14.01
2016-08-30T04:58:49.590Z,14.01
2016-08-30T04:59:49.572Z,13.99
2016-08-30T05:00:49.570Z,14.05
2016-08-30T05:01:49.577Z,13.97
2016-08-30T05:02:49.558Z,13.99
2016-08-30T05:03:49.550Z,13.91
2016-08-30T05:04:49.548Z,13.95
2016-08-30T05:05:49.563Z,13.97
2016-08-30T05:06:49.545Z,13.95
2016-08-30T05:07:49.528Z,13.95
2016-08-30T05:08:49.533Z,13.97
2016-08-30T05:09:49.539Z,13.95
2016-08-30T05:10:49.537Z,13.97
2016-08-30T05:11:49.517Z,14.02
2016-08-30T05:12:50.392Z,13.91
2016-08-30T05:13:49.499Z,13.94
2016-08-30T05:14:49.490Z,13.93
2016-08-30T05:15:49.504Z,13.95
2016-08-30T05:16:49.487Z,14.01
2016-08-30T05:17:49.492Z,14.09
2016-08-30T05:18:49.510Z,14.08
2016-08-30T05:19:50.330Z,14.01
2016-08-30T05:20:49.469Z,14.06
2016-08-30T05:21:49.457Z,14.13
2016-08-30T05:22:49.462Z,14.06
2016-08-30T05:23:49.448Z,14.09
2016-08-30T05:24:49.447Z,14.15
2016-08-30T05:25:49.445Z,14.12
2016-08-30T05:26:49.439Z,14.06
2016-08-30T05:27:50.395Z,14.09
2016-08-30T05:28:49.425Z,14.13
2016-08-30T05:29:49.430Z,14.2
2016-08-30T05:30:49.415Z,14.2
2016-08-30T05:31:49.413Z,14.2
2016-08-30T05:32:49.404Z,14.16
2016-08-30T05:33:49.407Z,14.23
2016-08-30T05:34:49.393Z,14.3
2016-08-30T05:35:50.633Z,14.39
2016-08-30T05:36:50.691Z,14.42
2016-08-30T05:37:49.380Z,14.33
2016-08-30T05:38:49.374Z,14.27
2016-08-30T05:39:49.368Z,14.36
2016-08-30T05:40:49.359Z,14.36
2016-08-30T05:41:49.368Z,14.31
2016-08-30T05:42:50.892Z,14.41
2016-08-30T05:43:49.365Z,14.33
2016-08-30T05:44:49.365Z,14.45
2016-08-30T05:45:50.531Z,14.46
2016-08-30T05:46:49.347Z,14.52
2016-08-30T05:47:49.331Z,14.46
2016-08-30T05:48:49.334Z,14.48
2016-08-30T05:49:50.146Z,14.53
2016-08-30T05:50:49.308Z,14.52
2016-08-30T05:51:49.316Z,14.51
2016-08-30T05:52:49.321Z,14.51
2016-08-30T05:53:49.357Z,14.61
2016-08-30T05:57:08.005Z,14.79
2016-08-30T05:58:07.980Z,14.66
2016-08-30T05:59:11.030Z,14.66
2016-08-30T06:00:18.640Z,14.61
2016-08-30T06:01:23.217Z,14.59
2016-08-30T06:02:08.223Z,14.64
2016-08-30T06:03:07.985Z,14.57
2016-08-30T06:04:07.969Z,14.6
2016-08-30T06:05:10.837Z,14.6
2016-08-30T06:06:07.990Z,14.56
2016-08-30T06:07:14.373Z,14.48
2016-08-30T06:08:11.802Z,14.48
2016-08-30T06:09:13.056Z,14.49
2016-08-30T06:10:31.665Z,14.59
2016-08-30T06:11:08.766Z,14.63
2016-08-30T06:12:08.687Z,14.64
2016-08-30T06:13:08.739Z,14.74
2016-08-30T06:14:07.921Z,14.67
2016-08-30T06:15:13.678Z,14.69
2016-08-30T06:16:07.913Z,14.74
2016-08-30T06:17:07.976Z,14.61
2016-08-30T06:18:07.896Z,14.71
2016-08-30T06:19:07.887Z,14.69
2016-08-30T06:20:18.118Z,14.71
2016-08-30T06:21:09.338Z,14.66
2016-08-30T06:22:08.814Z,14.63
2016-08-30T06:23:07.884Z,14.63
2016-08-30T06:24:07.874Z,14.66
2016-08-30T06:25:08.996Z,14.56
2016-08-30T06:26:07.887Z,14.61
2016-08-30T06:27:07.881Z,14.64
2016-08-30T06:28:07.858Z,14.6
2016-08-30T06:29:07.836Z,14.48
2016-08-30T06:30:07.842Z,14.51
2016-08-30T06:31:07.843Z,14.49
2016-08-30T06:32:08.540Z,14.45
2016-08-30T06:33:07.837Z,14.39
2016-08-30T06:34:07.826Z,14.48
2016-08-30T06:35:08.393Z,14.41
2016-08-30T06:36:07.812Z,14.46
2016-08-30T06:37:07.817Z,14.46
2016-08-30T06:38:07.805Z,14.51
2016-08-30T06:39:07.809Z,14.53
2016-08-30T06:40:07.936Z,14.6
2016-08-30T06:41:07.840Z,14.69
2016-08-30T06:42:07.813Z,14.63
2016-08-30T06:43:07.781Z,14.69
2016-08-30T06:44:07.767Z,14.83
2016-08-30T06:45:07.788Z,15.05
2016-08-30T06:46:07.766Z,15.05
2016-08-30T06:47:07.759Z,15.01
2016-08-30T06:48:07.830Z,15.1
2016-08-30T06:49:07.815Z,15.22
2016-08-30T06:50:07.746Z,15.45
2016-08-30T06:51:07.745Z,15.6
2016-08-30T06:52:07.746Z,15.73
2016-08-30T06:53:07.728Z,15.74
2016-08-30T06:54:07.729Z,15.67
2016-08-30T06:55:07.768Z,15.68
2016-08-30T06:56:07.719Z,15.71
2016-08-30T06:57:07.726Z,15.73
2016-08-30T06:58:07.705Z,15.77
2016-08-30T06:59:08.427Z,15.73
2016-08-30T07:00:08.439Z,15.65
2016-08-30T07:01:07.697Z,15.62
2016-08-30T07:02:07.693Z,15.59
2016-08-30T07:03:07.693Z,15.45
2016-08-30T07:04:07.679Z,15.47
2016-08-30T07:05:07.692Z,15.63
2016-08-30T07:06:07.688Z,15.77
2016-08-30T07:07:07.698Z,16.16
2016-08-30T07:08:07.664Z,16.7
2016-08-30T07:09:07.670Z,17.5
2016-08-30T07:10:07.831Z,18.26
2016-08-30T07:11:08.371Z,18.76
2016-08-30T07:12:07.643Z,19.31
2016-08-30T07:13:08.369Z,19.9
2016-08-30T07:14:07.631Z,20.07
2016-08-30T07:15:09.749Z,19.83
2016-08-30T07:16:07.629Z,19.47
2016-08-30T07:17:07.654Z,19.02
2016-08-30T07:18:07.629Z,18.65
2016-08-30T07:19:07.629Z,18.16
2016-08-30T07:20:19.279Z,17.87
2016-08-30T07:21:09.891Z,17.5
2016-08-30T07:22:07.775Z,17.5
2016-08-30T07:23:07.629Z,17.57
2016-08-30T07:24:07.850Z,17.69
2016-08-30T07:25:14.417Z,17.92
2016-08-30T07:26:09.499Z,18.01
2016-08-30T07:27:07.603Z,18.06
2016-08-30T07:28:07.601Z,17.99
2016-08-30T07:29:08.312Z,17.88
2016-08-30T07:30:07.607Z,17.74
2016-08-30T07:31:07.608Z,17.6
2016-08-30T07:32:07.587Z,17.54
2016-08-30T07:33:07.592Z,17.5
2016-08-30T07:34:07.630Z,17.47
2016-08-30T07:35:08.544Z,17.45
2016-08-30T07:36:08.278Z,17.32
2016-08-30T07:37:07.580Z,17.27
2016-08-30T07:38:07.574Z,17.24
2016-08-30T07:39:07.563Z,17.09
2016-08-30T07:40:08.977Z,17.03
2016-08-30T07:41:07.554Z,17.03
2016-08-30T07:42:07.555Z,17.05
2016-08-30T07:43:08.269Z,17.13
2016-08-30T07:44:07.542Z,17.13
2016-08-30T07:45:07.561Z,17.06
2016-08-30T07:46:07.534Z,17.02
2016-08-30T07:47:07.536Z,17
2016-08-30T07:48:07.530Z,17.07
2016-08-30T07:49:07.531Z,17.02
2016-08-30T07:50:08.291Z,17
2016-08-30T07:51:07.540Z,17.05
2016-08-30T07:52:07.527Z,17.12
2016-08-30T07:53:07.539Z,17.18
2016-08-30T07:54:07.515Z,17.18
2016-08-30T07:55:07.533Z,17.15
2016-08-30T07:56:07.511Z,17.22
2016-08-30T07:57:07.514Z,17.46
2016-08-30T07:58:07.495Z,17.71
2016-08-30T07:59:07.517Z,17.9
2016-08-30T08:00:07.962Z,17.95
2016-08-30T08:01:07.493Z,17.98
2016-08-30T08:02:07.492Z,18.06
2016-08-30T08:03:07.502Z,18.08
2016-08-30T08:04:07.493Z,18.03
2016-08-30T08:05:07.494Z,18.02
2016-08-30T08:06:07.479Z,18.06
2016-08-30T08:07:07.487Z,18.03
2016-08-30T08:08:07.473Z,18.1
2016-08-30T08:09:07.483Z,18.16
2016-08-30T08:10:08.326Z,18.08
2016-08-30T08:11:07.465Z,17.95
2016-08-30T08:12:07.458Z,17.83
2016-08-30T08:13:07.469Z,17.77
2016-08-30T08:14:07.473Z,17.73
2016-08-30T08:15:07.453Z,17.83
2016-08-30T08:16:07.452Z,18.06
2016-08-30T08:17:07.462Z,18.19
2016-08-30T08:18:07.444Z,18.36
2016-08-30T08:19:07.452Z,18.57
2016-08-30T08:20:07.646Z,18.91
2016-08-30T08:21:07.448Z,19.05
2016-08-30T08:22:07.438Z,19.25
2016-08-30T08:23:07.456Z,19.37
2016-08-30T08:24:07.431Z,19.5
2016-08-30T08:25:07.693Z,19.49
2016-08-30T08:26:07.423Z,19.57
2016-08-30T08:27:08.166Z,19.56
2016-08-30T08:28:08.134Z,19.53
2016-08-30T08:29:07.433Z,19.57
2016-08-30T08:30:08.136Z,19.49
2016-08-30T08:31:07.437Z,19.57
2016-08-30T08:32:07.423Z,19.52
2016-08-30T08:33:07.437Z,19.53
2016-08-30T08:34:07.420Z,19.5
2016-08-30T08:35:07.418Z,19.64
2016-08-30T08:36:07.412Z,19.53
2016-08-30T08:37:07.420Z,19.6
2016-08-30T08:38:07.404Z,19.64
2016-08-30T08:39:07.416Z,19.65
2016-08-30T08:40:08.321Z,19.82
2016-08-30T08:42:11.684Z,20.05
2016-08-30T08:42:21.606Z,20.12
2016-08-30T08:43:20.486Z,20.26
2016-08-30T08:44:21.889Z,20.26
2016-08-30T08:45:22.265Z,20.35
2016-08-30T08:46:20.577Z,20.12
2016-08-30T08:47:20.501Z,20.08
2016-08-30T08:48:20.481Z,19.86
2016-08-30T08:49:20.487Z,19.65
2016-08-30T08:50:20.747Z,19.46
2016-08-30T08:51:20.529Z,19.45
2016-08-30T08:52:20.501Z,19.32
2016-08-30T08:53:20.485Z,19.25
2016-08-30T08:54:20.490Z,18.97
2016-08-30T08:55:23.788Z,18.76
2016-08-30T08:56:20.503Z,18.63
2016-08-30T08:57:20.489Z,18.53
2016-08-30T08:58:20.590Z,18.32
2016-08-30T08:59:20.483Z,18.26
2016-08-30T09:00:20.523Z,18.23
2016-08-30T09:01:20.480Z,18.21
2016-08-30T09:02:20.467Z,18.19
2016-08-30T09:03:21.184Z,18.27
2016-08-30T09:04:20.488Z,18.29
2016-08-30T09:05:21.303Z,18.2
2016-08-30T09:06:20.473Z,18.08
2016-08-30T09:07:20.473Z,17.81
2016-08-30T09:08:20.461Z,17.74
2016-08-30T09:09:20.458Z,17.57
2016-08-30T09:10:21.193Z,17.47
2016-08-30T09:11:20.448Z,17.47
2016-08-30T09:12:20.444Z,17.54
2016-08-30T09:13:20.444Z,17.73
2016-08-30T09:14:20.437Z,17.87
2016-08-30T09:15:20.450Z,18.01
2016-08-30T09:16:20.451Z,18.23
2016-08-30T09:17:20.438Z,18.29
2016-08-30T09:18:20.447Z,18.38
2016-08-30T09:19:20.430Z,18.38
2016-08-30T09:20:20.420Z,18.47
2016-08-30T09:21:20.425Z,18.68
2016-08-30T09:22:20.422Z,18.6
2016-08-30T09:23:20.416Z,18.74
2016-08-30T09:24:20.410Z,18.9
2016-08-30T09:25:20.528Z,18.96
2016-08-30T09:26:20.407Z,19.02
2016-08-30T09:27:20.412Z,19.13
2016-08-30T09:28:20.421Z,19.19
2016-08-30T09:29:20.408Z,19.25
2016-08-30T09:30:20.428Z,19.31
2016-08-30T09:31:20.401Z,19.3
2016-08-30T09:32:20.392Z,19.25
2016-08-30T09:33:20.392Z,19.16
2016-08-30T09:34:20.438Z,19.15
2016-08-30T09:35:20.388Z,19.05
2016-08-30T09:36:20.393Z,18.81
2016-08-30T09:37:20.380Z,18.91
2016-08-30T09:38:20.390Z,18.91
2016-08-30T09:39:21.102Z,18.99
2016-08-30T09:40:20.396Z,18.99
2016-08-30T09:41:20.378Z,19.05
2016-08-30T09:42:20.378Z,18.96
2016-08-30T09:43:20.376Z,18.99
2016-08-30T09:44:20.374Z,18.99
2016-08-30T09:45:20.376Z,19.02
2016-08-30T09:46:20.377Z,18.89
2016-08-30T09:47:20.367Z,18.87
2016-08-30T09:48:20.366Z,18.99
2016-08-30T09:49:20.362Z,18.9
2016-08-30T09:50:20.372Z,18.81
2016-08-30T09:51:20.374Z,18.79
2016-08-30T09:52:20.350Z,18.68
2016-08-30T09:53:20.346Z,18.63
2016-08-30T09:54:21.058Z,18.69
2016-08-30T09:55:21.071Z,18.89
2016-08-30T09:56:20.352Z,19
2016-08-30T09:57:20.348Z,19.05
2016-08-30T09:58:20.342Z,18.99
2016-08-30T09:59:20.334Z,18.94
2016-08-30T10:00:20.346Z,19.12
2016-08-30T10:01:21.072Z,19.09
2016-08-30T10:02:20.346Z,19.09
2016-08-30T10:03:20.350Z,19
2016-08-30T10:04:20.329Z,19.09
2016-08-30T10:05:21.168Z,19.23
2016-08-30T10:06:20.324Z,19.17
2016-08-30T10:07:20.326Z,19.1
2016-08-30T10:08:21.036Z,19.07
2016-08-30T10:09:20.308Z,19.07
2016-08-30T10:10:20.319Z,19.1
2016-08-30T10:11:20.310Z,19.07
2016-08-30T10:12:20.323Z,19.07
2016-08-30T10:13:20.321Z,19.05
2016-08-30T10:14:20.330Z,18.9
2016-08-30T10:15:20.366Z,18.99
2016-08-30T10:16:20.354Z,18.94
2016-08-30T10:17:20.327Z,18.91
2016-08-30T10:18:20.318Z,18.96
2016-08-30T10:19:20.323Z,18.9
2016-08-30T10:20:20.405Z,18.89
2016-08-30T10:21:20.304Z,18.87
2016-08-30T10:22:20.299Z,18.76
2016-08-30T10:23:20.345Z,18.71
2016-08-30T10:24:20.308Z,18.76
2016-08-30T10:25:20.320Z,18.74
2016-08-30T10:26:20.315Z,18.78
2016-08-30T10:27:20.322Z,18.78
2016-08-30T10:28:20.357Z,18.74
2016-08-30T10:29:20.270Z,18.76
2016-08-30T10:30:20.281Z,18.75
2016-08-30T10:31:20.274Z,18.86
2016-08-30T10:32:20.263Z,18.87
2016-08-30T10:33:20.276Z,18.96
2016-08-30T10:34:20.320Z,18.93
2016-08-30T10:35:20.289Z,18.97
2016-08-30T10:36:20.285Z,19.05
2016-08-30T10:37:20.975Z,19.06
2016-08-30T10:38:20.305Z,19.15
2016-08-30T10:39:20.313Z,19.16
2016-08-30T10:40:20.322Z,19.16
2016-08-30T10:41:20.331Z,19.07
2016-08-30T10:42:20.255Z,19.16
2016-08-30T10:43:20.971Z,19.07
2016-08-30T10:44:20.248Z,19.19
2016-08-30T10:45:20.258Z,19.2
2016-08-30T10:46:20.255Z,19.24
2016-08-30T10:47:20.265Z,19.35
2016-08-30T10:48:20.237Z,19.38
2016-08-30T10:49:20.233Z,19.38
2016-08-30T10:50:20.291Z,19.49
2016-08-30T10:51:20.291Z,19.43
2016-08-30T10:52:20.304Z,19.3
2016-08-30T10:53:20.308Z,19.23
2016-08-30T10:54:20.223Z,19.2
2016-08-30T10:55:20.520Z,19.17
2016-08-30T10:56:20.929Z,19.19
2016-08-30T10:57:20.243Z,19.2
2016-08-30T10:58:20.249Z,19.23
2016-08-30T10:59:20.254Z,19.16
2016-08-30T11:00:21.201Z,19.15
2016-08-30T11:01:20.263Z,19.17
2016-08-30T11:02:20.273Z,19.23
2016-08-30T11:03:20.280Z,19.3
2016-08-30T11:04:20.295Z,19.27
2016-08-30T11:05:20.302Z,19.24
2016-08-30T11:06:20.248Z,19.31
2016-08-30T11:07:20.209Z,19.24
2016-08-30T11:08:20.220Z,19.25
2016-08-30T11:09:20.233Z,19.31
2016-08-30T11:10:20.241Z,19.3
2016-08-30T11:11:20.234Z,19.28
2016-08-30T11:12:20.244Z,19.3
2016-08-30T11:13:20.259Z,19.28
2016-08-30T11:14:20.266Z,19.34
2016-08-30T11:15:20.399Z,19.32
2016-08-30T11:16:20.271Z,19.32
2016-08-30T11:17:20.284Z,19.34
2016-08-30T11:18:20.285Z,19.4
2016-08-30T11:19:20.197Z,19.46
2016-08-30T11:20:20.196Z,19.49
2016-08-30T11:21:20.206Z,19.4
2016-08-30T11:22:20.219Z,19.5
2016-08-30T11:23:20.224Z,19.47
2016-08-30T11:24:20.233Z,19.55
2016-08-30T11:25:20.243Z,19.53
2016-08-30T11:26:20.254Z,19.6
2016-08-30T11:27:20.258Z,19.57
2016-08-30T11:28:20.258Z,19.56
2016-08-30T11:29:20.209Z,19.56
2016-08-30T11:30:20.768Z,19.56
2016-08-30T11:31:20.218Z,19.57
2016-08-30T11:32:20.187Z,19.46
2016-08-30T11:33:20.194Z,19.52
2016-08-30T11:34:20.206Z,19.45
2016-08-30T11:35:20.221Z,19.52
2016-08-30T11:36:20.212Z,19.49
2016-08-30T11:37:20.223Z,19.49
2016-08-30T11:38:20.233Z,19.55
2016-08-30T11:39:20.242Z,19.5
2016-08-30T11:40:20.190Z,19.52
2016-08-30T11:41:20.192Z,19.47
2016-08-30T11:42:20.204Z,19.53
2016-08-30T11:43:20.211Z,19.53
2016-08-30T11:44:20.853Z,19.47
2016-08-30T11:45:20.174Z,19.46
2016-08-30T11:46:20.188Z,19.53
2016-08-30T11:47:20.285Z,19.42
2016-08-30T11:48:20.207Z,19.46
2016-08-30T11:49:20.210Z,19.38
2016-08-30T11:50:20.219Z,19.4
2016-08-30T11:51:20.218Z,19.37
2016-08-30T11:52:20.171Z,19.35
2016-08-30T11:53:20.178Z,19.32
2016-08-30T11:54:20.184Z,19.4
2016-08-30T11:55:20.195Z,19.4
2016-08-30T11:56:20.196Z,19.34
2016-08-30T11:57:20.182Z,19.32
2016-08-30T11:58:20.171Z,19.32
2016-08-30T11:59:20.180Z,19.35
2016-08-30T12:00:20.190Z,19.37
2016-08-30T12:01:20.191Z,19.34
2016-08-30T12:02:20.198Z,19.4
2016-08-30T12:03:20.811Z,19.43
2016-08-30T12:04:20.156Z,19.38
2016-08-30T12:05:20.168Z,19.46
2016-08-30T12:06:20.164Z,19.37
2016-08-30T12:07:20.178Z,19.34
2016-08-30T12:08:20.185Z,19.38
2016-08-30T12:09:20.153Z,19.47
2016-08-30T12:10:20.256Z,19.37
2016-08-30T12:11:20.159Z,19.53
2016-08-30T12:12:20.170Z,19.5
2016-08-30T12:13:20.182Z,19.61
2016-08-30T12:14:20.137Z,19.61
2016-08-30T12:15:20.142Z,19.63
2016-08-30T12:16:20.134Z,19.55
2016-08-30T12:17:20.145Z,19.56
2016-08-30T12:18:20.165Z,19.47
2016-08-30T12:19:20.162Z,19.46
2016-08-30T12:20:20.175Z,19.52
2016-08-30T12:21:20.172Z,19.47
2016-08-30T12:22:20.140Z,19.45
2016-08-30T12:23:20.152Z,19.46
2016-08-30T12:24:20.163Z,19.45
2016-08-30T12:25:20.113Z,19.42
2016-08-30T12:26:20.168Z,19.42
2016-08-30T12:27:20.137Z,19.46
2016-08-30T12:28:20.128Z,19.42
2016-08-30T12:29:20.141Z,19.47
2016-08-30T12:30:20.148Z,19.46
2016-08-30T12:31:20.152Z,19.56
2016-08-30T12:32:20.177Z,19.52
2016-08-30T12:33:20.160Z,19.55
2016-08-30T12:34:20.139Z,19.55
2016-08-30T12:35:20.131Z,19.46
2016-08-30T12:36:20.146Z,19.38
2016-08-30T12:37:20.090Z,19.46
2016-08-30T12:38:20.099Z,19.31
2016-08-30T12:39:20.111Z,19.34
2016-08-30T12:40:20.875Z,19.34
2016-08-30T12:41:20.120Z,19.38
2016-08-30T12:42:20.131Z,19.32
2016-08-30T12:43:20.749Z,19.28
2016-08-30T12:44:20.150Z,19.34
2016-08-30T12:45:20.159Z,19.32
2016-08-30T12:46:20.157Z,19.28
2016-08-30T12:47:20.117Z,19.4
2016-08-30T12:48:20.070Z,19.42
2016-08-30T12:49:20.079Z,19.37
2016-08-30T12:50:20.079Z,19.49
2016-08-30T12:51:20.095Z,19.55
2016-08-30T12:52:20.096Z,19.43
2016-08-30T12:53:20.106Z,19.46
2016-08-30T12:54:20.115Z,19.5
2016-08-30T12:55:20.124Z,19.49
2016-08-30T12:56:20.127Z,19.5
2016-08-30T12:57:20.134Z,19.5
2016-08-30T12:58:20.141Z,19.6